createdAt,value
2022-10-13T00:01:15.764Z,50.47
2022-10-13T00:03:47.619Z,50.72
2022-10-13T00:06:20.930Z,50.28
2022-10-13T00:08:49.794Z,50.97
2022-10-13T00:11:19.663Z,50.46
2022-10-13T00:13:48.412Z,50.76
2022-10-13T00:16:18.477Z,50.43
2022-10-13T00:18:46.457Z,50.59
2022-10-13T00:21:16.750Z,51.24
2022-10-13T00:23:46.152Z,51.87
2022-10-13T00:26:18.097Z,51.99
2022-10-13T00:28:51.308Z,52.20
2022-10-13T00:31:31.887Z,51.98
2022-10-13T00:34:01.889Z,51.61
2022-10-13T00:36:30.002Z,50.94
2022-10-13T00:38:58.228Z,51.05
2022-10-13T00:41:26.493Z,52.02
2022-10-13T00:43:54.064Z,52.43
2022-10-13T00:46:22.838Z,52.24
2022-10-13T00:48:58.948Z,51.87
2022-10-13T00:51:32.082Z,52.00
2022-10-13T00:54:01.629Z,52.34
2022-10-13T00:56:29.807Z,53.85
2022-10-13T00:58:58.200Z,53.16
2022-10-13T01:01:26.055Z,54.27
2022-10-13T01:03:53.565Z,55.24
2022-10-13T01:06:23.801Z,53.49
2022-10-13T01:08:52.017Z,54.99
2022-10-13T01:11:31.553Z,55.23
2022-10-13T01:14:14.927Z,56.27
2022-10-13T01:17:00.819Z,56.05
2022-10-13T01:19:50.085Z,55.39
2022-10-13T01:22:37.413Z,54.92
2022-10-13T01:25:11.035Z,55.44
2022-10-13T01:28:14.236Z,54.17
2022-10-13T01:30:56.111Z,54.76
2022-10-13T01:33:49.936Z,53.76
2022-10-13T01:36:32.543Z,53.62
2022-10-13T01:39:38.130Z,54.11
2022-10-13T01:42:18.159Z,54.58
2022-10-13T01:44:51.361Z,54.70
2022-10-13T01:47:20.751Z,55.71
2022-10-13T01:49:52.143Z,55.19
2022-10-13T01:52:23.943Z,55.81
2022-10-13T01:54:52.958Z,54.92
2022-10-13T01:57:38.753Z,54.68
2022-10-13T02:00:10.721Z,55.14
2022-10-13T02:02:56.316Z,55.78
2022-10-13T02:05:27.314Z,58.23
2022-10-13T02:08:23.907Z,58.21
2022-10-13T02:11:10.308Z,56.86
2022-10-13T02:13:41.552Z,58.17
2022-10-13T02:16:11.138Z,57.51
2022-10-13T02:18:38.705Z,57.30
2022-10-13T02:21:06.668Z,56.12
2022-10-13T02:23:35.032Z,56.97
2022-10-13T02:26:03.371Z,56.24
2022-10-13T02:28:31.279Z,56.23
2022-10-13T02:30:59.208Z,57.57
2022-10-13T02:33:26.846Z,56.02
2022-10-13T02:35:54.408Z,56.28
2022-10-13T02:38:23.214Z,55.95
2022-10-13T02:40:51.017Z,56.96
2022-10-13T02:43:18.698Z,57.22
2022-10-13T02:45:46.532Z,56.78
2022-10-13T02:48:14.118Z,56.55
2022-10-13T02:50:41.838Z,57.00
2022-10-13T02:53:09.635Z,57.55
2022-10-13T02:55:37.173Z,57.11
2022-10-13T02:58:04.765Z,56.75
2022-10-13T03:00:32.691Z,57.27
2022-10-13T03:03:00.311Z,57.01
2022-10-13T03:05:27.877Z,55.97
2022-10-13T03:07:56.134Z,56.71
2022-10-13T03:10:23.900Z,56.35
2022-10-13T03:12:52.358Z,55.18
2022-10-13T03:15:20.220Z,55.01
2022-10-13T03:17:49.249Z,55.64
2022-10-13T03:20:17.416Z,56.83
2022-10-13T03:22:49.529Z,56.43
2022-10-13T03:25:17.627Z,57.27
2022-10-13T03:27:45.470Z,56.72
2022-10-13T03:30:13.422Z,58.32
2022-10-13T03:32:40.997Z,56.29
2022-10-13T03:35:09.191Z,55.79
2022-10-13T03:37:36.796Z,56.03
2022-10-13T03:40:04.878Z,56.32
2022-10-13T03:42:35.165Z,56.99
2022-10-13T03:45:04.078Z,57.38
2022-10-13T03:47:37.679Z,56.10
2022-10-13T03:50:06.230Z,56.02
2022-10-13T03:52:34.255Z,55.65
2022-10-13T03:55:01.938Z,55.40
2022-10-13T03:57:29.640Z,55.31
2022-10-13T03:59:58.131Z,56.98
2022-10-13T04:02:27.519Z,58.33
2022-10-13T04:04:55.752Z,58.54
2022-10-13T04:07:23.405Z,57.70
2022-10-13T04:09:52.255Z,58.50
2022-10-13T04:12:21.261Z,59.34
2022-10-13T04:14:48.988Z,58.36
2022-10-13T04:17:16.593Z,58.41
2022-10-13T04:19:44.750Z,59.12
2022-10-13T04:22:12.335Z,58.47
2022-10-13T04:24:41.720Z,57.92
2022-10-13T04:27:10.231Z,57.13
2022-10-13T04:29:37.990Z,56.96
2022-10-13T04:32:05.470Z,56.96
2022-10-13T04:34:33.419Z,56.79
2022-10-13T04:37:01.148Z,57.76
2022-10-13T04:39:28.757Z,58.32
2022-10-13T04:41:56.625Z,58.86
2022-10-13T04:44:24.235Z,59.99
2022-10-13T04:46:51.723Z,60.34
2022-10-13T04:49:20.306Z,59.20
2022-10-13T04:51:47.841Z,58.08
2022-10-13T04:54:15.444Z,57.64
2022-10-13T04:56:45.702Z,59.20
2022-10-13T04:59:13.607Z,60.93
2022-10-13T05:01:41.349Z,62.02
2022-10-13T05:04:11.602Z,61.89
2022-10-13T05:07:05.433Z,61.19
2022-10-13T05:09:30.098Z,60.20
2022-10-13T05:11:57.844Z,60.37
2022-10-13T05:14:25.684Z,61.92
2022-10-13T05:16:53.584Z,62.01
2022-10-13T05:19:21.130Z,60.99
2022-10-13T05:21:50.102Z,59.46
2022-10-13T05:24:18.109Z,58.45
2022-10-13T05:26:47.881Z,57.71
2022-10-13T05:29:15.434Z,57.62
2022-10-13T05:31:43.378Z,57.65
2022-10-13T05:34:11.318Z,58.04
2022-10-13T05:36:39.102Z,58.84
2022-10-13T05:39:08.416Z,59.44
2022-10-13T05:41:36.075Z,58.59
2022-10-13T05:44:07.811Z,58.27
2022-10-13T05:46:40.779Z,57.76
2022-10-13T05:49:08.301Z,56.45
2022-10-13T05:51:45.997Z,56.56
2022-10-13T05:54:21.619Z,56.58
2022-10-13T05:56:57.398Z,56.39
2022-10-13T05:59:29.066Z,57.05
2022-10-13T06:01:57.373Z,57.61
2022-10-13T06:04:35.857Z,58.10
2022-10-13T06:07:03.799Z,58.70
2022-10-13T06:09:35.742Z,58.27
2022-10-13T06:12:04.305Z,58.01
2022-10-13T06:14:32.154Z,57.28
2022-10-13T06:17:00.289Z,57.20
2022-10-13T06:19:27.907Z,57.47
2022-10-13T06:21:58.855Z,57.58
2022-10-13T06:24:28.769Z,58.25
2022-10-13T06:26:56.906Z,57.61
2022-10-13T06:29:24.414Z,56.68
2022-10-13T06:31:51.967Z,56.27
2022-10-13T06:34:19.902Z,56.34
2022-10-13T06:36:47.488Z,57.08
2022-10-13T06:39:15.079Z,56.29
2022-10-13T06:41:42.933Z,56.16
2022-10-13T06:44:11.229Z,56.43
2022-10-13T06:46:38.726Z,55.65
2022-10-13T06:49:06.602Z,55.36
2022-10-13T06:51:34.147Z,55.69
2022-10-13T06:54:01.776Z,56.04
2022-10-13T06:56:31.571Z,56.52
2022-10-13T06:58:59.483Z,55.93
2022-10-13T07:01:27.161Z,56.59
2022-10-13T07:03:55.101Z,55.94
2022-10-13T07:06:23.604Z,55.83
2022-10-13T07:08:51.586Z,55.54
2022-10-13T07:11:20.270Z,55.06
2022-10-13T07:13:49.140Z,54.91
2022-10-13T07:16:17.954Z,54.34
2022-10-13T07:18:48.120Z,53.01
2022-10-13T07:21:15.677Z,53.06
2022-10-13T07:23:43.419Z,54.39
2022-10-13T07:26:14.044Z,54.01
2022-10-13T07:28:42.523Z,53.88
2022-10-13T07:31:16.941Z,54.20
2022-10-13T07:33:47.712Z,54.03
2022-10-13T07:36:17.724Z,54.62
2022-10-13T07:38:46.423Z,54.18
2022-10-13T07:41:14.364Z,55.00
2022-10-13T07:43:42.379Z,55.06
2022-10-13T07:46:13.067Z,54.12
2022-10-13T07:48:40.940Z,54.31
2022-10-13T07:51:12.934Z,54.38
2022-10-13T07:53:42.856Z,54.16
2022-10-13T07:56:12.400Z,54.45
2022-10-13T07:58:42.978Z,53.93
2022-10-13T08:01:11.537Z,55.10
2022-10-13T08:03:42.920Z,53.90
2022-10-13T08:06:14.981Z,52.69
2022-10-13T08:08:42.767Z,51.65
2022-10-13T08:11:16.629Z,51.83
2022-10-13T08:13:50.580Z,50.52
2022-10-13T08:16:21.042Z,50.17
2022-10-13T08:18:49.480Z,49.35
2022-10-13T08:24:09.202Z,49.01
2022-10-13T08:26:36.943Z,49.58
2022-10-13T08:31:53.988Z,47.78
2022-10-13T08:34:25.130Z,47.31
2022-10-13T08:36:56.375Z,46.33
2022-10-13T08:39:24.333Z,46.98
2022-10-13T08:41:52.491Z,46.37
2022-10-13T08:45:10.902Z,46.66
2022-10-13T08:47:28.065Z,46.60
2022-10-13T08:50:00.688Z,45.76
2022-10-13T08:52:43.420Z,45.86
2022-10-13T08:55:24.993Z,45.67
2022-10-13T08:57:53.006Z,46.45
2022-10-13T09:00:22.562Z,45.17
2022-10-13T09:02:51.268Z,44.56
2022-10-13T09:05:27.553Z,43.43
2022-10-13T09:07:59.764Z,43.63
2022-10-13T09:10:27.332Z,43.63
2022-10-13T09:12:56.086Z,44.55
2022-10-13T09:15:24.376Z,43.11
2022-10-13T09:18:13.235Z,43.75
2022-10-13T09:20:41.761Z,42.11
2022-10-13T09:23:21.388Z,41.38
2022-10-13T09:25:51.665Z,41.17
2022-10-13T09:28:22.745Z,42.00
2022-10-13T09:31:09.151Z,41.17
2022-10-13T09:33:39.331Z,39.68
2022-10-13T09:36:16.554Z,39.23
2022-10-13T09:39:14.412Z,38.82
2022-10-13T09:41:45.055Z,37.76
2022-10-13T09:44:30.514Z,38.15
2022-10-13T09:47:01.031Z,37.40
2022-10-13T09:49:37.793Z,36.48
2022-10-13T09:52:12.082Z,35.33
2022-10-13T09:54:56.961Z,34.79
2022-10-13T09:57:27.743Z,36.20
2022-10-13T10:00:14.723Z,36.09
2022-10-13T10:03:03.272Z,35.36
2022-10-13T10:06:15.253Z,34.82
2022-10-13T10:09:06.519Z,34.38
2022-10-13T10:11:39.843Z,33.70
2022-10-13T10:14:17.568Z,33.81
2022-10-13T10:16:52.855Z,33.34
2022-10-13T10:19:38.210Z,36.00
2022-10-13T10:22:26.994Z,35.37
2022-10-13T10:25:10.016Z,34.91
2022-10-13T10:27:43.763Z,34.71
2022-10-13T10:30:17.353Z,34.86
2022-10-13T10:32:50.826Z,35.32
2022-10-13T10:35:37.169Z,34.96
2022-10-13T10:38:31.715Z,34.51
2022-10-13T10:41:43.044Z,33.51
2022-10-13T10:44:17.172Z,34.18
2022-10-13T10:46:54.820Z,33.93
2022-10-13T10:49:34.589Z,34.05
2022-10-13T10:52:08.477Z,33.99
2022-10-13T10:54:54.319Z,34.15
2022-10-13T10:57:33.630Z,33.46
2022-10-13T11:00:05.966Z,33.70
2022-10-13T11:02:46.495Z,33.81
2022-10-13T11:05:15.202Z,34.80
2022-10-13T11:07:43.117Z,34.88
2022-10-13T11:10:13.489Z,35.35
2022-10-13T11:13:01.196Z,33.97
2022-10-13T11:15:41.406Z,34.38
2022-10-13T11:18:46.546Z,34.28
2022-10-13T11:21:19.310Z,34.71
2022-10-13T11:23:49.561Z,35.68
2022-10-13T11:26:31.222Z,35.52
2022-10-13T11:28:59.793Z,34.82
2022-10-13T11:31:48.030Z,35.01
2022-10-13T11:34:32.252Z,34.28
2022-10-13T11:37:02.298Z,35.24
2022-10-13T11:39:59.580Z,35.19
2022-10-13T11:42:56.915Z,35.06
2022-10-13T11:45:59.597Z,36.12
2022-10-13T11:48:30.427Z,36.00
2022-10-13T11:51:16.598Z,34.84
2022-10-13T11:54:00.502Z,35.29
2022-10-13T11:56:47.461Z,35.21
2022-10-13T11:59:27.187Z,35.08
2022-10-13T12:01:59.964Z,35.73
2022-10-13T12:04:28.538Z,36.70
2022-10-13T12:07:00.483Z,35.86
2022-10-13T12:09:31.450Z,36.17
2022-10-13T12:12:12.584Z,37.25
2022-10-13T12:14:45.775Z,37.27
2022-10-13T12:17:27.726Z,36.47
2022-10-13T12:20:01.290Z,36.75
2022-10-13T12:22:29.407Z,37.41
2022-10-13T12:25:02.912Z,37.30
2022-10-13T12:27:33.224Z,37.70
2022-10-13T12:30:02.831Z,37.91
2022-10-13T12:32:34.361Z,37.38
2022-10-13T12:35:30.358Z,38.41
2022-10-13T12:38:01.579Z,36.86
2022-10-13T12:40:29.834Z,37.40
2022-10-13T12:42:57.675Z,37.27
2022-10-13T12:45:31.570Z,38.12
2022-10-13T12:47:59.530Z,37.67
2022-10-13T12:50:29.720Z,37.58
2022-10-13T12:53:09.708Z,36.94
2022-10-13T12:55:50.613Z,37.09
2022-10-13T12:58:34.751Z,36.97
2022-10-13T13:01:24.478Z,36.29
2022-10-13T13:04:21.290Z,36.96
2022-10-13T13:07:25.182Z,36.32
2022-10-13T13:10:18.842Z,36.93
2022-10-13T13:12:49.020Z,37.56
2022-10-13T13:15:19.390Z,37.30
2022-10-13T13:18:02.527Z,38.54
2022-10-13T13:20:32.587Z,37.74
2022-10-13T13:23:00.813Z,38.05
2022-10-13T13:25:28.554Z,37.57
2022-10-13T13:27:56.625Z,38.83
2022-10-13T13:30:24.602Z,38.32
2022-10-13T13:32:52.097Z,40.67
2022-10-13T13:35:19.731Z,40.26
2022-10-13T13:37:50.644Z,42.06
2022-10-13T13:40:24.249Z,41.53
2022-10-13T13:42:52.564Z,41.33
2022-10-13T13:45:22.494Z,40.38
2022-10-13T13:47:50.699Z,40.40
2022-10-13T13:50:25.894Z,41.04
2022-10-13T13:52:57.134Z,41.47
2022-10-13T13:55:26.363Z,41.78
2022-10-13T13:57:53.909Z,42.11
2022-10-13T14:00:22.048Z,42.91
2022-10-13T14:02:51.328Z,42.36
2022-10-13T14:05:18.954Z,42.10
2022-10-13T14:07:46.625Z,42.19
2022-10-13T14:10:14.751Z,43.08
2022-10-13T14:12:43.278Z,42.60
2022-10-13T14:15:11.121Z,42.08
2022-10-13T14:17:39.118Z,41.52
2022-10-13T14:20:07.280Z,41.52
2022-10-13T14:22:38.186Z,42.47
2022-10-13T14:25:07.451Z,42.08
2022-10-13T14:27:35.373Z,43.41
2022-10-13T14:30:05.731Z,43.06
2022-10-13T14:32:34.160Z,42.82
2022-10-13T14:35:01.827Z,43.33
2022-10-13T14:37:33.351Z,44.44
2022-10-13T14:40:01.778Z,44.58
2022-10-13T14:42:29.518Z,44.22
2022-10-13T14:44:57.047Z,44.56
2022-10-13T14:47:24.934Z,44.78
2022-10-13T14:49:52.530Z,44.51
2022-10-13T14:52:20.048Z,45.14
2022-10-13T14:54:48.004Z,45.22
2022-10-13T14:57:16.268Z,45.82
2022-10-13T14:59:48.701Z,45.36
2022-10-13T15:02:16.993Z,45.64
2022-10-13T15:04:50.421Z,45.96
2022-10-13T15:07:18.867Z,46.66
2022-10-13T15:09:52.971Z,46.71
2022-10-13T15:12:32.009Z,46.66
2022-10-13T15:14:59.627Z,47.26
2022-10-13T15:17:28.022Z,48.05
2022-10-13T15:19:56.028Z,48.07
2022-10-13T15:22:23.753Z,46.90
2022-10-13T15:24:51.536Z,46.88
2022-10-13T15:27:19.430Z,46.75
2022-10-13T15:29:47.047Z,47.79
2022-10-13T15:32:18.414Z,47.59
2022-10-13T15:34:49.302Z,47.37
2022-10-13T15:37:16.932Z,48.32
2022-10-13T15:39:44.916Z,49.04
2022-10-13T15:42:12.762Z,49.36
2022-10-13T15:45:08.168Z,49.46
2022-10-13T15:47:28.208Z,50.27
2022-10-13T15:49:56.129Z,50.25
2022-10-13T15:52:24.264Z,50.77
2022-10-13T15:54:52.325Z,51.16
2022-10-13T15:57:19.912Z,51.13
2022-10-13T15:59:47.447Z,51.61
2022-10-13T16:02:16.717Z,51.69
2022-10-13T16:04:44.816Z,51.88
2022-10-13T16:07:12.352Z,51.96
2022-10-13T16:09:39.915Z,52.57
2022-10-13T16:12:07.821Z,52.25
2022-10-13T16:14:35.327Z,52.46
2022-10-13T16:17:03.854Z,53.05
2022-10-13T16:19:31.696Z,52.34
2022-10-13T16:21:59.278Z,53.16
2022-10-13T16:24:26.779Z,54.41
2022-10-13T16:26:54.627Z,53.64
2022-10-13T16:29:24.170Z,54.31
2022-10-13T16:31:51.816Z,54.93
2022-10-13T16:34:21.369Z,53.71
2022-10-13T16:36:49.747Z,53.82
2022-10-13T16:39:17.299Z,53.77
2022-10-13T16:41:45.232Z,54.65
2022-10-13T16:44:13.288Z,54.29
2022-10-13T16:46:42.390Z,54.03
2022-10-13T16:49:11.385Z,54.19
2022-10-13T16:51:38.945Z,53.47
2022-10-13T16:54:06.519Z,53.46
2022-10-13T16:56:34.374Z,52.78
2022-10-13T16:59:04.724Z,53.14
2022-10-13T17:01:33.676Z,53.92
2022-10-13T17:04:01.709Z,54.38
2022-10-13T17:06:29.758Z,54.12
2022-10-13T17:08:59.047Z,53.70
2022-10-13T17:11:30.101Z,53.91
2022-10-13T17:13:58.749Z,54.44
2022-10-13T17:16:28.095Z,54.46
2022-10-13T17:18:56.324Z,54.47
2022-10-13T17:21:32.024Z,53.99
2022-10-13T17:23:59.861Z,54.61
2022-10-13T17:26:27.515Z,54.66
2022-10-13T17:28:55.650Z,55.43
2022-10-13T17:31:24.481Z,55.51
2022-10-13T17:33:52.546Z,55.56
2022-10-13T17:36:25.897Z,55.68
2022-10-13T17:38:55.977Z,55.72
2022-10-13T17:41:24.358Z,55.32
2022-10-13T17:43:52.641Z,55.35
2022-10-13T17:46:36.221Z,55.34
2022-10-13T17:49:07.149Z,56.26
2022-10-13T17:51:35.188Z,56.12
2022-10-13T17:54:03.448Z,56.98
2022-10-13T17:56:31.678Z,56.51
2022-10-13T17:59:01.852Z,55.59
2022-10-13T18:01:32.782Z,56.40
2022-10-13T18:04:04.146Z,56.29
2022-10-13T18:06:38.612Z,55.87
2022-10-13T18:09:15.864Z,56.43
2022-10-13T18:11:49.677Z,55.62
2022-10-13T18:14:23.500Z,55.37
2022-10-13T18:16:52.234Z,55.17
2022-10-13T18:19:21.595Z,55.13
2022-10-13T18:21:49.618Z,55.62
2022-10-13T18:24:17.359Z,57.82
2022-10-13T18:26:45.937Z,57.86
2022-10-13T18:29:13.590Z,57.37
2022-10-13T18:31:42.038Z,57.80
2022-10-13T18:34:15.554Z,57.71
2022-10-13T18:36:48.278Z,57.95
2022-10-13T18:39:19.350Z,56.91
2022-10-13T18:41:50.104Z,56.58
2022-10-13T18:44:19.129Z,56.81
2022-10-13T18:46:50.403Z,56.88
2022-10-13T18:49:21.463Z,58.60
2022-10-13T18:51:52.427Z,59.46
2022-10-13T18:54:20.298Z,58.12
2022-10-13T18:56:47.936Z,58.06
2022-10-13T18:59:16.967Z,58.01
2022-10-13T19:01:45.182Z,58.85
2022-10-13T19:04:14.785Z,58.10
2022-10-13T19:06:43.413Z,57.50
2022-10-13T19:09:13.667Z,57.38
2022-10-13T19:11:41.787Z,59.19
2022-10-13T19:14:12.074Z,59.92
2022-10-13T19:16:42.034Z,61.13
2022-10-13T19:19:09.571Z,61.19
2022-10-13T19:21:38.392Z,60.82
2022-10-13T19:24:07.825Z,61.60
2022-10-13T19:26:37.038Z,59.78
2022-10-13T19:29:10.892Z,59.47
2022-10-13T19:31:41.473Z,60.84
2022-10-13T19:34:10.822Z,60.43
2022-10-13T19:36:44.193Z,61.40
2022-10-13T19:39:23.421Z,61.29
2022-10-13T19:41:52.881Z,60.08
2022-10-13T19:44:21.907Z,59.50
2022-10-13T19:46:50.240Z,59.30
2022-10-13T19:49:20.695Z,61.12
2022-10-13T19:51:49.773Z,63.22
2022-10-13T19:54:19.036Z,62.32
2022-10-13T19:56:48.124Z,62.58
2022-10-13T19:59:17.599Z,60.64
2022-10-13T20:01:45.344Z,62.21
2022-10-13T20:04:14.889Z,62.71
2022-10-13T20:06:44.448Z,62.94
2022-10-13T20:09:12.623Z,64.91
2022-10-13T20:11:40.585Z,64.80
2022-10-13T20:14:08.152Z,64.17
2022-10-13T20:16:37.767Z,63.29
2022-10-13T20:19:06.685Z,61.48
2022-10-13T20:21:34.236Z,61.52
2022-10-13T20:24:01.796Z,61.37
2022-10-13T20:26:29.654Z,62.53
2022-10-13T20:28:58.312Z,63.04
2022-10-13T20:31:26.872Z,61.77
2022-10-13T20:33:56.676Z,60.57
2022-10-13T20:36:26.370Z,60.65
2022-10-13T20:38:55.055Z,63.53
2022-10-13T20:41:27.989Z,62.21
2022-10-13T20:43:57.813Z,61.46
2022-10-13T20:46:26.079Z,62.19
2022-10-13T20:49:11.461Z,61.97
2022-10-13T20:51:40.964Z,61.38
2022-10-13T20:54:09.857Z,62.30
2022-10-13T20:56:37.720Z,64.12
2022-10-13T20:59:08.188Z,62.67
2022-10-13T21:01:37.006Z,62.65
2022-10-13T21:04:05.247Z,64.62
2022-10-13T21:06:33.970Z,64.17
2022-10-13T21:09:01.869Z,64.19
2022-10-13T21:11:30.007Z,64.89
2022-10-13T21:13:57.619Z,65.05
2022-10-13T21:16:28.149Z,64.31
2022-10-13T21:18:57.352Z,64.87
2022-10-13T21:21:28.324Z,63.54
2022-10-13T21:23:57.944Z,63.55
2022-10-13T21:26:27.151Z,63.80
2022-10-13T21:28:55.595Z,62.43
2022-10-13T21:31:24.806Z,61.81
2022-10-13T21:33:53.048Z,61.48
2022-10-13T21:36:23.843Z,61.93
2022-10-13T21:38:53.696Z,64.01
2022-10-13T21:41:22.436Z,64.09
2022-10-13T21:43:51.765Z,65.24
2022-10-13T21:46:29.330Z,65.55
2022-10-13T21:48:59.104Z,62.93
2022-10-13T21:51:31.470Z,61.95
2022-10-13T21:54:05.207Z,63.17
2022-10-13T21:56:34.351Z,64.43
2022-10-13T21:59:02.319Z,62.35
2022-10-13T22:01:30.127Z,61.51
2022-10-13T22:04:01.307Z,61.51
2022-10-13T22:06:31.710Z,61.27
2022-10-13T22:09:01.421Z,63.91
2022-10-13T22:11:31.719Z,62.87
2022-10-13T22:14:03.937Z,61.70
2022-10-13T22:16:35.127Z,63.81
2022-10-13T22:19:03.656Z,63.64
2022-10-13T22:21:35.042Z,63.52
2022-10-13T22:24:06.655Z,62.20
2022-10-13T22:26:35.892Z,61.58
2022-10-13T22:29:05.552Z,63.53
2022-10-13T22:31:33.440Z,65.01
2022-10-13T22:34:06.168Z,64.94
2022-10-13T22:36:33.980Z,64.70
2022-10-13T22:39:03.072Z,62.71
2022-10-13T22:41:32.660Z,62.29
2022-10-13T22:44:01.417Z,63.20
2022-10-13T22:46:31.644Z,63.53
2022-10-13T22:49:00.442Z,64.03
2022-10-13T22:51:29.887Z,63.42
2022-10-13T22:53:58.537Z,64.35
2022-10-13T22:56:29.188Z,65.43
2022-10-13T22:59:03.386Z,63.63
2022-10-13T23:01:31.628Z,64.41
2022-10-13T23:03:59.974Z,64.69
2022-10-13T23:06:30.587Z,62.92
2022-10-13T23:09:06.261Z,63.54
2022-10-13T23:11:34.291Z,64.73
2022-10-13T23:14:03.679Z,64.73
2022-10-13T23:16:31.979Z,65.48
2022-10-13T23:18:59.630Z,66.82
2022-10-13T23:21:29.068Z,66.41
2022-10-13T23:24:02.599Z,65.57
2022-10-13T23:26:31.389Z,65.36
2022-10-13T23:29:00.030Z,66.95
2022-10-13T23:31:28.580Z,65.38
2022-10-13T23:33:56.971Z,65.56
2022-10-13T23:36:27.858Z,66.29
2022-10-13T23:39:01.556Z,65.78
2022-10-13T23:41:29.927Z,66.37
2022-10-13T23:43:58.415Z,65.91
2022-10-13T23:46:26.148Z,65.25
2022-10-13T23:48:53.895Z,64.88
2022-10-13T23:51:23.456Z,63.84
2022-10-13T23:53:51.690Z,63.48
2022-10-13T23:56:19.837Z,63.15
2022-10-13T23:58:48.420Z,62.80
